sensor_id;sensor_type;location;lat;lon;timestamp;temperature;humidity
40534;DHT22;26233;51.894;10.192;2023-08-30T00:01:37;15.90;45.60
40534;DHT22;26233;51.894;10.192;2023-08-30T00:04:04;15.80;45.50
40534;DHT22;26233;51.894;10.192;2023-08-30T00:06:32;15.90;45.60
40534;DHT22;26233;51.894;10.192;2023-08-30T00:08:59;15.80;45.60
40534;DHT22;26233;51.894;10.192;2023-08-30T00:11:27;15.80;45.60
40534;DHT22;26233;51.894;10.192;2023-08-30T00:14:02;15.80;45.70
40534;DHT22;26233;51.894;10.192;2023-08-30T00:16:31;15.80;45.90
40534;DHT22;26233;51.894;10.192;2023-08-30T00:18:58;15.80;45.80
40534;DHT22;26233;51.894;10.192;2023-08-30T00:21:26;15.70;45.90
40534;DHT22;26233;51.894;10.192;2023-08-30T00:23:55;15.80;46.00
40534;DHT22;26233;51.894;10.192;2023-08-30T00:26:22;15.70;45.80
40534;DHT22;26233;51.894;10.192;2023-08-30T00:28:49;15.70;45.80
40534;DHT22;26233;51.894;10.192;2023-08-30T00:31:16;15.70;45.80
40534;DHT22;26233;51.894;10.192;2023-08-30T00:33:43;15.70;45.80
40534;DHT22;26233;51.894;10.192;2023-08-30T00:36:10;15.70;45.80
40534;DHT22;26233;51.894;10.192;2023-08-30T00:38:37;15.60;45.70
40534;DHT22;26233;51.894;10.192;2023-08-30T00:41:06;15.60;45.70
40534;DHT22;26233;51.894;10.192;2023-08-30T00:43:33;15.60;45.70
40534;DHT22;26233;51.894;10.192;2023-08-30T00:45:59;15.60;45.70
40534;DHT22;26233;51.894;10.192;2023-08-30T00:48:26;15.50;45.70
40534;DHT22;26233;51.894;10.192;2023-08-30T00:50:54;15.50;45.80
40534;DHT22;26233;51.894;10.192;2023-08-30T00:53:21;15.40;45.70
40534;DHT22;26233;51.894;10.192;2023-08-30T00:55:48;15.40;45.80
40534;DHT22;26233;51.894;10.192;2023-08-30T00:58:16;15.40;45.90
40534;DHT22;26233;51.894;10.192;2023-08-30T01:00:44;15.30;46.50
40534;DHT22;26233;51.894;10.192;2023-08-30T01:03:13;15.30;45.90
40534;DHT22;26233;51.894;10.192;2023-08-30T01:05:40;15.30;46.00
40534;DHT22;26233;51.894;10.192;2023-08-30T01:08:10;15.20;45.90
40534;DHT22;26233;51.894;10.192;2023-08-30T01:10:49;15.20;46.00
40534;DHT22;26233;51.894;10.192;2023-08-30T01:13:21;15.20;46.10
40534;DHT22;26233;51.894;10.192;2023-08-30T01:15:48;15.20;46.00
40534;DHT22;26233;51.894;10.192;2023-08-30T01:18:18;15.10;46.00
40534;DHT22;26233;51.894;10.192;2023-08-30T01:20:48;15.10;46.00
40534;DHT22;26233;51.894;10.192;2023-08-30T01:23:23;15.20;46.10
40534;DHT22;26233;51.894;10.192;2023-08-30T01:25:57;15.10;46.20
40534;DHT22;26233;51.894;10.192;2023-08-30T01:28:33;15.10;46.10
40534;DHT22;26233;51.894;10.192;2023-08-30T01:31:00;15.00;46.00
40534;DHT22;26233;51.894;10.192;2023-08-30T01:33:29;15.00;46.00
40534;DHT22;26233;51.894;10.192;2023-08-30T01:35:58;15.10;46.20
40534;DHT22;26233;51.894;10.192;2023-08-30T01:38:27;15.00;46.20
40534;DHT22;26233;51.894;10.192;2023-08-30T01:40:56;15.00;46.10
40534;DHT22;26233;51.894;10.192;2023-08-30T01:43:25;14.90;46.00
40534;DHT22;26233;51.894;10.192;2023-08-30T01:45:56;14.90;46.20
40534;DHT22;26233;51.894;10.192;2023-08-30T01:48:25;14.90;46.20
40534;DHT22;26233;51.894;10.192;2023-08-30T01:50:54;14.80;46.10
40534;DHT22;26233;51.894;10.192;2023-08-30T01:53:25;14.80;46.20
40534;DHT22;26233;51.894;10.192;2023-08-30T01:55:52;14.80;46.20
40534;DHT22;26233;51.894;10.192;2023-08-30T01:58:20;14.80;46.30
40534;DHT22;26233;51.894;10.192;2023-08-30T02:00:47;14.80;46.40
40534;DHT22;26233;51.894;10.192;2023-08-30T02:03:15;14.80;46.40
40534;DHT22;26233;51.894;10.192;2023-08-30T02:05:52;14.80;46.50
40534;DHT22;26233;51.894;10.192;2023-08-30T02:08:29;14.80;46.70
40534;DHT22;26233;51.894;10.192;2023-08-30T02:11:02;14.80;46.50
40534;DHT22;26233;51.894;10.192;2023-08-30T02:13:31;14.70;46.40
40534;DHT22;26233;51.894;10.192;2023-08-30T02:16:01;14.80;46.50
40534;DHT22;26233;51.894;10.192;2023-08-30T02:18:30;14.70;46.40
40534;DHT22;26233;51.894;10.192;2023-08-30T02:20:57;14.70;46.50
40534;DHT22;26233;51.894;10.192;2023-08-30T02:23:25;14.70;46.50
40534;DHT22;26233;51.894;10.192;2023-08-30T02:25:53;14.70;46.50
40534;DHT22;26233;51.894;10.192;2023-08-30T02:28:21;14.70;46.60
40534;DHT22;26233;51.894;10.192;2023-08-30T02:30:48;14.70;46.60
40534;DHT22;26233;51.894;10.192;2023-08-30T02:33:16;14.70;46.70
40534;DHT22;26233;51.894;10.192;2023-08-30T02:35:45;14.60;46.60
40534;DHT22;26233;51.894;10.192;2023-08-30T02:38:12;14.60;46.70
40534;DHT22;26233;51.894;10.192;2023-08-30T02:40:39;14.60;46.70
40534;DHT22;26233;51.894;10.192;2023-08-30T02:43:06;14.70;46.80
40534;DHT22;26233;51.894;10.192;2023-08-30T02:45:33;14.70;46.90
40534;DHT22;26233;51.894;10.192;2023-08-30T02:48:00;14.70;46.90
40534;DHT22;26233;51.894;10.192;2023-08-30T02:50:27;14.70;46.90
40534;DHT22;26233;51.894;10.192;2023-08-30T02:52:55;14.70;47.00
40534;DHT22;26233;51.894;10.192;2023-08-30T02:55:22;14.70;47.00
40534;DHT22;26233;51.894;10.192;2023-08-30T02:57:49;14.70;47.10
40534;DHT22;26233;51.894;10.192;2023-08-30T03:00:16;14.70;47.10
40534;DHT22;26233;51.894;10.192;2023-08-30T03:02:43;14.70;47.20
40534;DHT22;26233;51.894;10.192;2023-08-30T03:05:10;14.70;47.20
40534;DHT22;26233;51.894;10.192;2023-08-30T03:07:38;14.90;47.50
40534;DHT22;26233;51.894;10.192;2023-08-30T03:10:07;14.80;47.30
40534;DHT22;26233;51.894;10.192;2023-08-30T03:12:35;14.90;47.50
40534;DHT22;26233;51.894;10.192;2023-08-30T03:15:02;14.90;47.50
40534;DHT22;26233;51.894;10.192;2023-08-30T03:17:30;15.00;47.60
40534;DHT22;26233;51.894;10.192;2023-08-30T03:19:58;15.00;47.50
40534;DHT22;26233;51.894;10.192;2023-08-30T03:22:25;15.10;47.60
40534;DHT22;26233;51.894;10.192;2023-08-30T03:24:52;15.10;47.50
40534;DHT22;26233;51.894;10.192;2023-08-30T03:27:21;15.10;47.50
40534;DHT22;26233;51.894;10.192;2023-08-30T03:29:48;15.20;47.60
40534;DHT22;26233;51.894;10.192;2023-08-30T03:32:17;15.20;47.60
40534;DHT22;26233;51.894;10.192;2023-08-30T03:34:44;15.20;47.60
40534;DHT22;26233;51.894;10.192;2023-08-30T03:37:12;15.30;47.60
40534;DHT22;26233;51.894;10.192;2023-08-30T03:39:39;15.30;47.60
40534;DHT22;26233;51.894;10.192;2023-08-30T03:42:06;15.30;47.60
40534;DHT22;26233;51.894;10.192;2023-08-30T03:44:35;15.40;47.60
40534;DHT22;26233;51.894;10.192;2023-08-30T03:47:02;15.40;47.60
40534;DHT22;26233;51.894;10.192;2023-08-30T03:49:31;15.40;47.60
40534;DHT22;26233;51.894;10.192;2023-08-30T03:51:58;15.50;47.70
40534;DHT22;26233;51.894;10.192;2023-08-30T03:54:25;15.50;47.70
40534;DHT22;26233;51.894;10.192;2023-08-30T03:56:52;15.50;47.60
40534;DHT22;26233;51.894;10.192;2023-08-30T03:59:19;15.50;47.50
40534;DHT22;26233;51.894;10.192;2023-08-30T04:01:49;15.50;47.50
40534;DHT22;26233;51.894;10.192;2023-08-30T04:04:16;15.50;47.60
40534;DHT22;26233;51.894;10.192;2023-08-30T04:06:43;15.50;47.60
40534;DHT22;26233;51.894;10.192;2023-08-30T04:09:10;15.50;47.70
40534;DHT22;26233;51.894;10.192;2023-08-30T04:11:37;15.50;47.70
40534;DHT22;26233;51.894;10.192;2023-08-30T04:14:04;15.50;47.70
40534;DHT22;26233;51.894;10.192;2023-08-30T04:16:32;15.50;48.30
40534;DHT22;26233;51.894;10.192;2023-08-30T04:19:00;15.50;47.70
40534;DHT22;26233;51.894;10.192;2023-08-30T04:21:27;15.50;47.70
40534;DHT22;26233;51.894;10.192;2023-08-30T04:23:54;15.60;47.70
40534;DHT22;26233;51.894;10.192;2023-08-30T04:26:21;15.50;47.50
40534;DHT22;26233;51.894;10.192;2023-08-30T04:28:48;15.50;47.50
40534;DHT22;26233;51.894;10.192;2023-08-30T04:31:15;15.50;47.50
40534;DHT22;26233;51.894;10.192;2023-08-30T04:33:42;15.50;47.50
40534;DHT22;26233;51.894;10.192;2023-08-30T04:36:11;15.40;47.40
40534;DHT22;26233;51.894;10.192;2023-08-30T04:38:38;15.40;47.40
40534;DHT22;26233;51.894;10.192;2023-08-30T04:41:05;15.30;47.30
40534;DHT22;26233;51.894;10.192;2023-08-30T04:43:32;15.30;47.50
40534;DHT22;26233;51.894;10.192;2023-08-30T04:45:59;15.30;47.60
40534;DHT22;26233;51.894;10.192;2023-08-30T04:48:26;15.20;47.70
40534;DHT22;26233;51.894;10.192;2023-08-30T04:51:01;15.30;47.90
40534;DHT22;26233;51.894;10.192;2023-08-30T04:53:32;15.30;48.10
40534;DHT22;26233;51.894;10.192;2023-08-30T04:55:59;15.30;48.00
40534;DHT22;26233;51.894;10.192;2023-08-30T04:58:26;15.40;48.10
40534;DHT22;26233;51.894;10.192;2023-08-30T05:00:56;15.50;48.10
40534;DHT22;26233;51.894;10.192;2023-08-30T05:03:23;15.40;48.00
40534;DHT22;26233;51.894;10.192;2023-08-30T05:05:52;15.50;48.10
40534;DHT22;26233;51.894;10.192;2023-08-30T05:08:20;15.50;48.10
40534;DHT22;26233;51.894;10.192;2023-08-30T05:10:48;15.60;48.10
40534;DHT22;26233;51.894;10.192;2023-08-30T05:13:16;15.50;48.00
40534;DHT22;26233;51.894;10.192;2023-08-30T05:15:43;15.50;48.10
40534;DHT22;26233;51.894;10.192;2023-08-30T05:18:10;15.60;48.20
40534;DHT22;26233;51.894;10.192;2023-08-30T05:20:37;15.70;48.40
40534;DHT22;26233;51.894;10.192;2023-08-30T05:23:07;15.70;48.40
40534;DHT22;26233;51.894;10.192;2023-08-30T05:25:34;15.70;48.60
40534;DHT22;26233;51.894;10.192;2023-08-30T05:28:03;15.80;48.60
40534;DHT22;26233;51.894;10.192;2023-08-30T05:30:30;15.90;48.70
40534;DHT22;26233;51.894;10.192;2023-08-30T05:32:57;16.00;48.80
40534;DHT22;26233;51.894;10.192;2023-08-30T05:35:24;16.10;48.90
40534;DHT22;26233;51.894;10.192;2023-08-30T05:37:52;16.20;49.00
40534;DHT22;26233;51.894;10.192;2023-08-30T05:40:19;16.40;49.20
40534;DHT22;26233;51.894;10.192;2023-08-30T05:42:46;16.50;49.20
40534;DHT22;26233;51.894;10.192;2023-08-30T05:45:15;16.70;49.20
40534;DHT22;26233;51.894;10.192;2023-08-30T05:47:42;16.70;49.10
40534;DHT22;26233;51.894;10.192;2023-08-30T05:50:09;16.80;49.10
40534;DHT22;26233;51.894;10.192;2023-08-30T05:52:36;17.00;49.20
40534;DHT22;26233;51.894;10.192;2023-08-30T05:55:07;17.10;49.80
40534;DHT22;26233;51.894;10.192;2023-08-30T05:57:34;17.20;49.10
40534;DHT22;26233;51.894;10.192;2023-08-30T06:00:02;17.30;49.00
40534;DHT22;26233;51.894;10.192;2023-08-30T06:02:31;17.40;48.90
40534;DHT22;26233;51.894;10.192;2023-08-30T06:04:58;17.50;49.00
40534;DHT22;26233;51.894;10.192;2023-08-30T06:07:28;17.60;48.90
40534;DHT22;26233;51.894;10.192;2023-08-30T06:09:55;17.60;48.90
40534;DHT22;26233;51.894;10.192;2023-08-30T06:12:25;17.70;48.80
40534;DHT22;26233;51.894;10.192;2023-08-30T06:14:53;17.80;48.80
40534;DHT22;26233;51.894;10.192;2023-08-30T06:17:20;17.90;48.80
40534;DHT22;26233;51.894;10.192;2023-08-30T06:19:48;17.90;48.60
40534;DHT22;26233;51.894;10.192;2023-08-30T06:22:15;18.00;48.70
40534;DHT22;26233;51.894;10.192;2023-08-30T06:24:42;18.10;48.60
40534;DHT22;26233;51.894;10.192;2023-08-30T06:27:09;18.10;48.50
40534;DHT22;26233;51.894;10.192;2023-08-30T06:29:36;18.20;48.40
40534;DHT22;26233;51.894;10.192;2023-08-30T06:32:04;18.20;48.40
40534;DHT22;26233;51.894;10.192;2023-08-30T06:34:32;18.30;48.40
40534;DHT22;26233;51.894;10.192;2023-08-30T06:37:00;18.30;48.50
40534;DHT22;26233;51.894;10.192;2023-08-30T06:39:32;18.40;48.60
40534;DHT22;26233;51.894;10.192;2023-08-30T06:42:00;18.40;48.70
40534;DHT22;26233;51.894;10.192;2023-08-30T06:44:27;18.50;48.70
40534;DHT22;26233;51.894;10.192;2023-08-30T06:46:55;18.60;48.80
40534;DHT22;26233;51.894;10.192;2023-08-30T06:49:22;18.80;49.10
40534;DHT22;26233;51.894;10.192;2023-08-30T06:51:49;18.90;49.10
40534;DHT22;26233;51.894;10.192;2023-08-30T06:54:18;19.10;49.30
40534;DHT22;26233;51.894;10.192;2023-08-30T06:56:57;19.40;49.50
40534;DHT22;26233;51.894;10.192;2023-08-30T06:59:25;19.60;49.50
40534;DHT22;26233;51.894;10.192;2023-08-30T07:01:52;20.00;50.50
40534;DHT22;26233;51.894;10.192;2023-08-30T07:04:19;20.40;50.70
40534;DHT22;26233;51.894;10.192;2023-08-30T07:06:46;20.80;50.70
40534;DHT22;26233;51.894;10.192;2023-08-30T07:09:13;21.20;50.80
40534;DHT22;26233;51.894;10.192;2023-08-30T07:11:45;21.70;51.00
40534;DHT22;26233;51.894;10.192;2023-08-30T07:14:12;22.30;51.00
40534;DHT22;26233;51.894;10.192;2023-08-30T07:16:40;22.90;51.00
40534;DHT22;26233;51.894;10.192;2023-08-30T07:19:10;23.30;50.20
40534;DHT22;26233;51.894;10.192;2023-08-30T07:21:37;23.80;49.50
40534;DHT22;26233;51.894;10.192;2023-08-30T07:24:05;24.20;49.70
40534;DHT22;26233;51.894;10.192;2023-08-30T07:26:33;24.70;49.20
40534;DHT22;26233;51.894;10.192;2023-08-30T07:29:02;25.00;48.50
40534;DHT22;26233;51.894;10.192;2023-08-30T07:31:30;25.20;47.50
40534;DHT22;26233;51.894;10.192;2023-08-30T07:33:57;25.40;47.30
40534;DHT22;26233;51.894;10.192;2023-08-30T07:36:25;25.60;47.10
40534;DHT22;26233;51.894;10.192;2023-08-30T07:38:53;25.70;46.40
40534;DHT22;26233;51.894;10.192;2023-08-30T07:41:20;25.80;45.90
40534;DHT22;26233;51.894;10.192;2023-08-30T07:43:47;25.90;45.70
40534;DHT22;26233;51.894;10.192;2023-08-30T07:46:15;25.90;45.30
40534;DHT22;26233;51.894;10.192;2023-08-30T07:48:42;26.00;45.40
40534;DHT22;26233;51.894;10.192;2023-08-30T07:51:09;26.20;45.70
40534;DHT22;26233;51.894;10.192;2023-08-30T07:53:36;26.50;46.00
40534;DHT22;26233;51.894;10.192;2023-08-30T07:56:04;26.80;45.90
40534;DHT22;26233;51.894;10.192;2023-08-30T07:58:31;27.10;45.70
40534;DHT22;26233;51.894;10.192;2023-08-30T08:00:58;27.30;45.10
40534;DHT22;26233;51.894;10.192;2023-08-30T08:03:29;27.50;44.20
40534;DHT22;26233;51.894;10.192;2023-08-30T08:05:58;27.60;43.00
40534;DHT22;26233;51.894;10.192;2023-08-30T08:08:26;27.60;42.90
40534;DHT22;26233;51.894;10.192;2023-08-30T09:31:55;24.60;41.70
40534;DHT22;26233;51.894;10.192;2023-08-30T09:34:23;24.60;41.90
40534;DHT22;26233;51.894;10.192;2023-08-30T09:36:51;24.50;41.80
40534;DHT22;26233;51.894;10.192;2023-08-30T09:39:18;24.40;41.70
40534;DHT22;26233;51.894;10.192;2023-08-30T09:41:47;24.40;41.70
40534;DHT22;26233;51.894;10.192;2023-08-30T09:44:15;24.40;41.70
40534;DHT22;26233;51.894;10.192;2023-08-30T09:46:44;24.40;41.60
40534;DHT22;26233;51.894;10.192;2023-08-30T09:49:13;24.30;41.40
40534;DHT22;26233;51.894;10.192;2023-08-30T09:51:41;24.20;42.00
40534;DHT22;26233;51.894;10.192;2023-08-30T09:54:14;24.20;41.60
40534;DHT22;26233;51.894;10.192;2023-08-30T09:56:43;24.20;41.70
40534;DHT22;26233;51.894;10.192;2023-08-30T09:59:11;24.30;41.80
40534;DHT22;26233;51.894;10.192;2023-08-30T10:01:40;24.30;42.00
40534;DHT22;26233;51.894;10.192;2023-08-30T10:04:09;24.50;42.40
40534;DHT22;26233;51.894;10.192;2023-08-30T10:06:39;24.70;42.70
40534;DHT22;26233;51.894;10.192;2023-08-30T10:09:07;25.00;42.90
40534;DHT22;26233;51.894;10.192;2023-08-30T10:11:36;25.40;43.10
40534;DHT22;26233;51.894;10.192;2023-08-30T10:14:04;25.70;42.80
40534;DHT22;26233;51.894;10.192;2023-08-30T10:16:37;26.00;42.60
40534;DHT22;26233;51.894;10.192;2023-08-30T10:19:11;26.30;42.50
40534;DHT22;26233;51.894;10.192;2023-08-30T10:21:43;26.60;43.10
40534;DHT22;26233;51.894;10.192;2023-08-30T10:24:12;27.00;42.40
40534;DHT22;26233;51.894;10.192;2023-08-30T10:26:43;27.20;42.00
40534;DHT22;26233;51.894;10.192;2023-08-30T10:29:12;27.40;41.40
40534;DHT22;26233;51.894;10.192;2023-08-30T10:31:40;27.50;41.10
40534;DHT22;26233;51.894;10.192;2023-08-30T10:34:13;27.60;41.20
40534;DHT22;26233;51.894;10.192;2023-08-30T10:36:44;27.80;40.70
40534;DHT22;26233;51.894;10.192;2023-08-30T10:39:12;27.90;40.90
40534;DHT22;26233;51.894;10.192;2023-08-30T10:41:54;28.00;40.50
40534;DHT22;26233;51.894;10.192;2023-08-30T10:44:22;28.10;39.90
40534;DHT22;26233;51.894;10.192;2023-08-30T10:46:54;28.10;40.00
40534;DHT22;26233;51.894;10.192;2023-08-30T10:49:21;28.10;39.60
40534;DHT22;26233;51.894;10.192;2023-08-30T10:51:57;28.10;39.70
40534;DHT22;26233;51.894;10.192;2023-08-30T10:54:37;28.10;39.60
40534;DHT22;26233;51.894;10.192;2023-08-30T10:57:04;28.10;39.40
40534;DHT22;26233;51.894;10.192;2023-08-30T10:59:31;28.10;39.70
40534;DHT22;26233;51.894;10.192;2023-08-30T11:02:01;28.10;39.80
40534;DHT22;26233;51.894;10.192;2023-08-30T11:04:29;28.10;39.90
40534;DHT22;26233;51.894;10.192;2023-08-30T11:06:58;28.10;39.80
40534;DHT22;26233;51.894;10.192;2023-08-30T11:09:25;28.10;39.40
40534;DHT22;26233;51.894;10.192;2023-08-30T11:11:52;28.10;39.30
40534;DHT22;26233;51.894;10.192;2023-08-30T11:14:19;28.10;39.10
40534;DHT22;26233;51.894;10.192;2023-08-30T11:16:46;28.20;39.20
40534;DHT22;26233;51.894;10.192;2023-08-30T11:19:13;28.20;38.90
40534;DHT22;26233;51.894;10.192;2023-08-30T11:21:44;28.10;38.30
40534;DHT22;26233;51.894;10.192;2023-08-30T11:24:12;28.00;37.80
40534;DHT22;26233;51.894;10.192;2023-08-30T11:26:39;27.80;37.90
40534;DHT22;26233;51.894;10.192;2023-08-30T11:29:07;27.60;37.60
40534;DHT22;26233;51.894;10.192;2023-08-30T11:31:35;27.30;37.40
40534;DHT22;26233;51.894;10.192;2023-08-30T11:34:02;27.00;37.20
40534;DHT22;26233;51.894;10.192;2023-08-30T11:36:31;26.80;37.80
40534;DHT22;26233;51.894;10.192;2023-08-30T11:38:58;26.50;37.20
40534;DHT22;26233;51.894;10.192;2023-08-30T11:41:27;26.20;37.10
40534;DHT22;26233;51.894;10.192;2023-08-30T11:43:54;25.90;37.30
40534;DHT22;26233;51.894;10.192;2023-08-30T11:46:21;25.60;37.50
40534;DHT22;26233;51.894;10.192;2023-08-30T11:48:50;25.40;37.80
40534;DHT22;26233;51.894;10.192;2023-08-30T11:51:19;25.30;38.60
40534;DHT22;26233;51.894;10.192;2023-08-30T11:53:47;25.30;38.80
40534;DHT22;26233;51.894;10.192;2023-08-30T11:56:15;25.30;39.00
40534;DHT22;26233;51.894;10.192;2023-08-30T11:58:44;25.40;39.50
40534;DHT22;26233;51.894;10.192;2023-08-30T12:01:11;25.50;39.50
40534;DHT22;26233;51.894;10.192;2023-08-30T12:03:39;25.60;39.70
40534;DHT22;26233;51.894;10.192;2023-08-30T12:06:10;25.80;39.90
40534;DHT22;26233;51.894;10.192;2023-08-30T12:08:37;26.00;39.70
40534;DHT22;26233;51.894;10.192;2023-08-30T12:11:04;26.20;39.70
40534;DHT22;26233;51.894;10.192;2023-08-30T12:13:32;26.50;40.00
40534;DHT22;26233;51.894;10.192;2023-08-30T12:16:02;26.70;39.70
40534;DHT22;26233;51.894;10.192;2023-08-30T12:18:32;26.80;39.10
40534;DHT22;26233;51.894;10.192;2023-08-30T12:21:01;26.90;38.50
40534;DHT22;26233;51.894;10.192;2023-08-30T12:23:30;26.90;38.10
40534;DHT22;26233;51.894;10.192;2023-08-30T12:25:59;26.90;38.20
40534;DHT22;26233;51.894;10.192;2023-08-30T12:28:27;26.80;38.10
40534;DHT22;26233;51.894;10.192;2023-08-30T12:30:55;26.70;37.80
40534;DHT22;26233;51.894;10.192;2023-08-30T12:33:24;26.60;37.60
40534;DHT22;26233;51.894;10.192;2023-08-30T12:35:52;26.50;37.40
40534;DHT22;26233;51.894;10.192;2023-08-30T12:38:19;26.40;37.50
40534;DHT22;26233;51.894;10.192;2023-08-30T12:40:47;26.20;37.50
40534;DHT22;26233;51.894;10.192;2023-08-30T12:43:15;26.10;37.60
40534;DHT22;26233;51.894;10.192;2023-08-30T12:45:43;26.00;37.70
40534;DHT22;26233;51.894;10.192;2023-08-30T12:48:12;25.90;37.80
40534;DHT22;26233;51.894;10.192;2023-08-30T12:50:42;25.90;38.10
40534;DHT22;26233;51.894;10.192;2023-08-30T12:53:10;25.90;38.00
40534;DHT22;26233;51.894;10.192;2023-08-30T12:55:37;25.90;37.90
40534;DHT22;26233;51.894;10.192;2023-08-30T12:58:06;25.90;37.90
40534;DHT22;26233;51.894;10.192;2023-08-30T13:00:34;26.00;37.90
40534;DHT22;26233;51.894;10.192;2023-08-30T13:03:02;26.00;38.00
40534;DHT22;26233;51.894;10.192;2023-08-30T13:05:29;26.10;37.90
40534;DHT22;26233;51.894;10.192;2023-08-30T13:07:59;26.20;37.80
40534;DHT22;26233;51.894;10.192;2023-08-30T13:10:26;26.20;37.70
40534;DHT22;26233;51.894;10.192;2023-08-30T13:12:53;26.20;37.80
40534;DHT22;26233;51.894;10.192;2023-08-30T13:15:21;26.20;37.90
40534;DHT22;26233;51.894;10.192;2023-08-30T13:17:48;26.20;37.60
40534;DHT22;26233;51.894;10.192;2023-08-30T13:20:15;26.20;37.40
40534;DHT22;26233;51.894;10.192;2023-08-30T13:22:42;26.20;37.30
40534;DHT22;26233;51.894;10.192;2023-08-30T13:25:10;26.10;37.60
40534;DHT22;26233;51.894;10.192;2023-08-30T13:27:37;26.00;36.70
40534;DHT22;26233;51.894;10.192;2023-08-30T13:30:06;25.90;36.70
40534;DHT22;26233;51.894;10.192;2023-08-30T13:32:33;25.80;36.70
40534;DHT22;26233;51.894;10.192;2023-08-30T13:35:01;25.70;36.80
40534;DHT22;26233;51.894;10.192;2023-08-30T13:37:28;25.60;36.90
40534;DHT22;26233;51.894;10.192;2023-08-30T13:39:55;25.50;36.80
40534;DHT22;26233;51.894;10.192;2023-08-30T13:42:23;25.40;37.20
40534;DHT22;26233;51.894;10.192;2023-08-30T13:44:51;25.40;37.10
40534;DHT22;26233;51.894;10.192;2023-08-30T13:47:18;25.40;37.40
40534;DHT22;26233;51.894;10.192;2023-08-30T13:49:46;25.40;37.60
40534;DHT22;26233;51.894;10.192;2023-08-30T13:52:13;25.50;37.90
40534;DHT22;26233;51.894;10.192;2023-08-30T13:54:40;25.60;38.10
40534;DHT22;26233;51.894;10.192;2023-08-30T13:57:07;25.80;38.20
40534;DHT22;26233;51.894;10.192;2023-08-30T13:59:35;25.90;38.00
40534;DHT22;26233;51.894;10.192;2023-08-30T14:02:03;26.00;37.80
40534;DHT22;26233;51.894;10.192;2023-08-30T14:04:30;26.10;37.70
40534;DHT22;26233;51.894;10.192;2023-08-30T14:06:59;26.10;37.50
40534;DHT22;26233;51.894;10.192;2023-08-30T14:09:26;26.20;37.60
40534;DHT22;26233;51.894;10.192;2023-08-30T14:11:53;26.20;37.60
40534;DHT22;26233;51.894;10.192;2023-08-30T14:14:21;26.30;37.40
40534;DHT22;26233;51.894;10.192;2023-08-30T14:16:50;26.30;37.10
40534;DHT22;26233;51.894;10.192;2023-08-30T14:19:17;26.20;36.80
40534;DHT22;26233;51.894;10.192;2023-08-30T14:21:44;26.20;36.90
40534;DHT22;26233;51.894;10.192;2023-08-30T14:24:11;26.20;37.00
40534;DHT22;26233;51.894;10.192;2023-08-30T14:26:38;26.10;36.90
40534;DHT22;26233;51.894;10.192;2023-08-30T14:29:05;26.10;36.70
40534;DHT22;26233;51.894;10.192;2023-08-30T14:31:32;26.10;36.90
40534;DHT22;26233;51.894;10.192;2023-08-30T14:34:00;26.00;36.60
40534;DHT22;26233;51.894;10.192;2023-08-30T14:36:28;25.90;36.60
40534;DHT22;26233;51.894;10.192;2023-08-30T14:38:55;25.80;36.40
40534;DHT22;26233;51.894;10.192;2023-08-30T14:41:22;25.70;36.40
40534;DHT22;26233;51.894;10.192;2023-08-30T14:43:49;25.50;36.40
40534;DHT22;26233;51.894;10.192;2023-08-30T14:46:16;25.40;36.40
40534;DHT22;26233;51.894;10.192;2023-08-30T14:48:45;25.20;36.30
40534;DHT22;26233;51.894;10.192;2023-08-30T14:51:13;25.00;36.40
40534;DHT22;26233;51.894;10.192;2023-08-30T14:53:40;24.90;36.60
40534;DHT22;26233;51.894;10.192;2023-08-30T14:56:07;24.70;36.70
40534;DHT22;26233;51.894;10.192;2023-08-30T14:58:37;24.60;36.90
40534;DHT22;26233;51.894;10.192;2023-08-30T15:01:04;24.60;37.20
40534;DHT22;26233;51.894;10.192;2023-08-30T15:03:31;24.60;37.60
40534;DHT22;26233;51.894;10.192;2023-08-30T15:05:59;24.50;37.20
40534;DHT22;26233;51.894;10.192;2023-08-30T15:08:27;24.50;37.30
40534;DHT22;26233;51.894;10.192;2023-08-30T15:10:57;24.50;37.30
40534;DHT22;26233;51.894;10.192;2023-08-30T15:13:24;24.50;37.30
40534;DHT22;26233;51.894;10.192;2023-08-30T15:15:51;24.50;37.30
40534;DHT22;26233;51.894;10.192;2023-08-30T15:18:19;24.50;37.10
40534;DHT22;26233;51.894;10.192;2023-08-30T15:20:51;24.50;37.10
40534;DHT22;26233;51.894;10.192;2023-08-30T15:23:19;24.40;36.90
40534;DHT22;26233;51.894;10.192;2023-08-30T15:25:51;24.40;36.70
40534;DHT22;26233;51.894;10.192;2023-08-30T15:28:18;24.30;36.40
40534;DHT22;26233;51.894;10.192;2023-08-30T15:30:46;24.20;36.30
40534;DHT22;26233;51.894;10.192;2023-08-30T15:33:16;24.10;36.40
40534;DHT22;26233;51.894;10.192;2023-08-30T15:35:44;24.10;36.40
40534;DHT22;26233;51.894;10.192;2023-08-30T15:38:11;24.00;36.30
40534;DHT22;26233;51.894;10.192;2023-08-30T15:40:39;23.90;36.90
40534;DHT22;26233;51.894;10.192;2023-08-30T15:43:09;23.90;36.30
40534;DHT22;26233;51.894;10.192;2023-08-30T15:45:36;23.80;36.20
40534;DHT22;26233;51.894;10.192;2023-08-30T15:48:04;23.80;36.40
40534;DHT22;26233;51.894;10.192;2023-08-30T15:50:32;23.70;36.40
40534;DHT22;26233;51.894;10.192;2023-08-30T15:52:59;23.70;36.40
40534;DHT22;26233;51.894;10.192;2023-08-30T15:55:26;23.60;36.40
40534;DHT22;26233;51.894;10.192;2023-08-30T15:57:54;23.60;36.50
40534;DHT22;26233;51.894;10.192;2023-08-30T16:00:25;23.60;36.50
40534;DHT22;26233;51.894;10.192;2023-08-30T16:02:53;23.50;36.60
40534;DHT22;26233;51.894;10.192;2023-08-30T16:05:23;23.40;36.60
40534;DHT22;26233;51.894;10.192;2023-08-30T16:07:50;23.40;36.60
40534;DHT22;26233;51.894;10.192;2023-08-30T16:10:17;23.30;36.50
40534;DHT22;26233;51.894;10.192;2023-08-30T16:12:44;23.30;36.60
40534;DHT22;26233;51.894;10.192;2023-08-30T16:15:12;23.30;36.70
40534;DHT22;26233;51.894;10.192;2023-08-30T16:17:41;23.20;36.60
40534;DHT22;26233;51.894;10.192;2023-08-30T16:20:09;23.20;36.90
40534;DHT22;26233;51.894;10.192;2023-08-30T16:22:37;23.10;37.00
40534;DHT22;26233;51.894;10.192;2023-08-30T16:25:05;23.00;37.00
40534;DHT22;26233;51.894;10.192;2023-08-30T16:27:32;23.00;37.20
40534;DHT22;26233;51.894;10.192;2023-08-30T16:29:59;22.90;37.20
40534;DHT22;26233;51.894;10.192;2023-08-30T16:32:28;22.90;37.20
40534;DHT22;26233;51.894;10.192;2023-08-30T16:34:57;22.80;37.20
40534;DHT22;26233;51.894;10.192;2023-08-30T16:37:24;22.80;37.40
40534;DHT22;26233;51.894;10.192;2023-08-30T16:39:51;22.70;37.40
40534;DHT22;26233;51.894;10.192;2023-08-30T16:42:18;22.70;37.60